sensor_id;sensor_type;location;lat;lon;timestamp;P1;durP1;ratioP1;P2;durP2;ratioP2
70675;SDS011;59069;52.242;20.900;2023-03-03T00:01:27;80.45;;;28.92;;
70675;SDS011;59069;52.242;20.900;2023-03-03T00:03:54;84.38;;;30.55;;
70675;SDS011;59069;52.242;20.900;2023-03-03T00:06:20;84.82;;;28.40;;
70675;SDS011;59069;52.242;20.900;2023-03-03T00:08:46;82.60;;;27.80;;
70675;SDS011;59069;52.242;20.900;2023-03-03T00:11:11;78.90;;;25.75;;
70675;SDS011;59069;52.242;20.900;2023-03-03T00:13:48;86.87;;;28.73;;
70675;SDS011;59069;52.242;20.900;2023-03-03T00:18:50;82.47;;;28.30;;
70675;SDS011;59069;52.242;20.900;2023-03-03T00:21:24;85.32;;;28.08;;
70675;SDS011;59069;52.242;20.900;2023-03-03T00:23:53;84.87;;;28.87;;
70675;SDS011;59069;52.242;20.900;2023-03-03T00:26:28;80.00;;;27.63;;
70675;SDS011;59069;52.242;20.900;2023-03-03T00:28:59;77.35;;;27.73;;
70675;SDS011;59069;52.242;20.900;2023-03-03T00:31:29;84.32;;;27.42;;
70675;SDS011;59069;52.242;20.900;2023-03-03T00:36:55;81.60;;;27.93;;
70675;SDS011;59069;52.242;20.900;2023-03-03T00:39:29;82.25;;;27.15;;
70675;SDS011;59069;52.242;20.900;2023-03-03T00:42:00;87.88;;;29.02;;
70675;SDS011;59069;52.242;20.900;2023-03-03T00:52:39;75.22;;;25.75;;
70675;SDS011;59069;52.242;20.900;2023-03-03T00:55:09;86.45;;;28.42;;
70675;SDS011;59069;52.242;20.900;2023-03-03T00:57:35;75.43;;;26.38;;
70675;SDS011;59069;52.242;20.900;2023-03-03T01:00:01;77.07;;;27.07;;
70675;SDS011;59069;52.242;20.900;2023-03-03T01:02:27;73.15;;;26.45;;
70675;SDS011;59069;52.242;20.900;2023-03-03T01:04:53;76.85;;;26.27;;
70675;SDS011;59069;52.242;20.900;2023-03-03T01:07:21;80.82;;;26.30;;
70675;SDS011;59069;52.242;20.900;2023-03-03T01:09:47;65.70;;;25.30;;
70675;SDS011;59069;52.242;20.900;2023-03-03T01:12:13;81.05;;;26.95;;
70675;SDS011;59069;52.242;20.900;2023-03-03T01:14:39;78.43;;;25.35;;
70675;SDS011;59069;52.242;20.900;2023-03-03T01:17:05;75.50;;;27.03;;
70675;SDS011;59069;52.242;20.900;2023-03-03T01:19:31;71.57;;;25.35;;
70675;SDS011;59069;52.242;20.900;2023-03-03T01:21:57;66.28;;;23.27;;
70675;SDS011;59069;52.242;20.900;2023-03-03T01:24:22;69.77;;;23.93;;
70675;SDS011;59069;52.242;20.900;2023-03-03T01:26:48;66.80;;;24.55;;
70675;SDS011;59069;52.242;20.900;2023-03-03T01:29:14;72.57;;;24.33;;
70675;SDS011;59069;52.242;20.900;2023-03-03T01:31:39;62.72;;;23.35;;
70675;SDS011;59069;52.242;20.900;2023-03-03T01:34:05;61.17;;;22.87;;
70675;SDS011;59069;52.242;20.900;2023-03-03T01:36:31;72.93;;;23.67;;
70675;SDS011;59069;52.242;20.900;2023-03-03T01:38:58;60.80;;;23.10;;
70675;SDS011;59069;52.242;20.900;2023-03-03T01:41:27;65.37;;;23.60;;
70675;SDS011;59069;52.242;20.900;2023-03-03T01:43:54;61.92;;;22.55;;
70675;SDS011;59069;52.242;20.900;2023-03-03T01:48:49;60.92;;;21.92;;
70675;SDS011;59069;52.242;20.900;2023-03-03T01:51:19;59.85;;;21.75;;
70675;SDS011;59069;52.242;20.900;2023-03-03T01:54:03;60.90;;;21.40;;
70675;SDS011;59069;52.242;20.900;2023-03-03T01:56:35;58.88;;;22.33;;
70675;SDS011;59069;52.242;20.900;2023-03-03T01:59:02;65.22;;;22.27;;
70675;SDS011;59069;52.242;20.900;2023-03-03T02:01:42;56.23;;;19.53;;
70675;SDS011;59069;52.242;20.900;2023-03-03T02:04:08;58.28;;;22.25;;
70675;SDS011;59069;52.242;20.900;2023-03-03T02:06:35;64.72;;;22.67;;
70675;SDS011;59069;52.242;20.900;2023-03-03T02:11:54;58.90;;;21.33;;
70675;SDS011;59069;52.242;20.900;2023-03-03T02:14:23;58.08;;;20.85;;
70675;SDS011;59069;52.242;20.900;2023-03-03T02:16:49;62.10;;;22.35;;
70675;SDS011;59069;52.242;20.900;2023-03-03T02:22:20;57.53;;;21.33;;
70675;SDS011;59069;52.242;20.900;2023-03-03T02:24:53;61.33;;;21.23;;
70675;SDS011;59069;52.242;20.900;2023-03-03T02:27:24;63.95;;;23.35;;
70675;SDS011;59069;52.242;20.900;2023-03-03T02:29:51;59.25;;;22.48;;
70675;SDS011;59069;52.242;20.900;2023-03-03T02:32:17;58.73;;;22.67;;
70675;SDS011;59069;52.242;20.900;2023-03-03T02:34:44;56.28;;;22.15;;
70675;SDS011;59069;52.242;20.900;2023-03-03T02:37:11;55.80;;;20.23;;
70675;SDS011;59069;52.242;20.900;2023-03-03T02:39:37;59.93;;;21.47;;
70675;SDS011;59069;52.242;20.900;2023-03-03T02:42:07;61.47;;;21.43;;
70675;SDS011;59069;52.242;20.900;2023-03-03T02:44:38;58.95;;;21.10;;
70675;SDS011;59069;52.242;20.900;2023-03-03T02:47:04;54.67;;;20.30;;
70675;SDS011;59069;52.242;20.900;2023-03-03T02:49:30;57.27;;;19.97;;
70675;SDS011;59069;52.242;20.900;2023-03-03T02:51:58;49.03;;;19.10;;
70675;SDS011;59069;52.242;20.900;2023-03-03T02:54:25;56.35;;;19.40;;
70675;SDS011;59069;52.242;20.900;2023-03-03T02:56:51;54.97;;;19.87;;
70675;SDS011;59069;52.242;20.900;2023-03-03T02:59:17;58.58;;;19.13;;
70675;SDS011;59069;52.242;20.900;2023-03-03T03:01:44;57.95;;;20.08;;
70675;SDS011;59069;52.242;20.900;2023-03-03T03:04:12;53.22;;;19.35;;
70675;SDS011;59069;52.242;20.900;2023-03-03T03:06:46;52.00;;;18.67;;
70675;SDS011;59069;52.242;20.900;2023-03-03T03:09:13;60.38;;;19.65;;
70675;SDS011;59069;52.242;20.900;2023-03-03T03:11:40;59.70;;;20.63;;
70675;SDS011;59069;52.242;20.900;2023-03-03T03:14:07;59.92;;;21.65;;
70675;SDS011;59069;52.242;20.900;2023-03-03T03:16:34;52.70;;;20.00;;
70675;SDS011;59069;52.242;20.900;2023-03-03T03:19:01;65.87;;;21.30;;
70675;SDS011;59069;52.242;20.900;2023-03-03T03:21:27;58.60;;;21.63;;
70675;SDS011;59069;52.242;20.900;2023-03-03T03:23:54;60.42;;;22.58;;
70675;SDS011;59069;52.242;20.900;2023-03-03T03:26:20;65.50;;;24.27;;
70675;SDS011;59069;52.242;20.900;2023-03-03T03:28:48;59.97;;;21.97;;
70675;SDS011;59069;52.242;20.900;2023-03-03T03:31:15;65.18;;;23.23;;
70675;SDS011;59069;52.242;20.900;2023-03-03T03:33:42;67.72;;;23.48;;
70675;SDS011;59069;52.242;20.900;2023-03-03T03:36:07;62.80;;;23.17;;
70675;SDS011;59069;52.242;20.900;2023-03-03T03:38:34;60.15;;;21.95;;
70675;SDS011;59069;52.242;20.900;2023-03-03T03:41:01;67.90;;;23.17;;
70675;SDS011;59069;52.242;20.900;2023-03-03T03:43:27;65.47;;;22.83;;
70675;SDS011;59069;52.242;20.900;2023-03-03T03:45:53;65.43;;;22.87;;
70675;SDS011;59069;52.242;20.900;2023-03-03T03:48:19;58.90;;;21.48;;
70675;SDS011;59069;52.242;20.900;2023-03-03T03:50:48;65.50;;;21.73;;
70675;SDS011;59069;52.242;20.900;2023-03-03T03:53:15;63.05;;;22.58;;
70675;SDS011;59069;52.242;20.900;2023-03-03T03:55:41;64.27;;;22.13;;
70675;SDS011;59069;52.242;20.900;2023-03-03T03:58:07;66.00;;;21.23;;
70675;SDS011;59069;52.242;20.900;2023-03-03T04:00:33;60.53;;;21.15;;
70675;SDS011;59069;52.242;20.900;2023-03-03T04:02:58;60.57;;;22.27;;
70675;SDS011;59069;52.242;20.900;2023-03-03T04:05:24;67.03;;;21.88;;
70675;SDS011;59069;52.242;20.900;2023-03-03T04:07:50;61.43;;;21.80;;
70675;SDS011;59069;52.242;20.900;2023-03-03T04:10:15;60.80;;;20.37;;
70675;SDS011;59069;52.242;20.900;2023-03-03T04:12:42;63.97;;;20.50;;
70675;SDS011;59069;52.242;20.900;2023-03-03T04:15:08;61.50;;;21.67;;
70675;SDS011;59069;52.242;20.900;2023-03-03T04:17:36;59.70;;;21.83;;
70675;SDS011;59069;52.242;20.900;2023-03-03T04:20:02;64.17;;;21.57;;
70675;SDS011;59069;52.242;20.900;2023-03-03T04:22:29;62.22;;;21.50;;
70675;SDS011;59069;52.242;20.900;2023-03-03T04:25:01;59.85;;;21.90;;
70675;SDS011;59069;52.242;20.900;2023-03-03T04:27:30;62.50;;;21.33;;
70675;SDS011;59069;52.242;20.900;2023-03-03T04:29:56;64.93;;;22.13;;
70675;SDS011;59069;52.242;20.900;2023-03-03T04:32:22;67.68;;;22.27;;
70675;SDS011;59069;52.242;20.900;2023-03-03T04:34:47;67.00;;;22.23;;
70675;SDS011;59069;52.242;20.900;2023-03-03T04:37:13;68.45;;;24.38;;
70675;SDS011;59069;52.242;20.900;2023-03-03T04:39:39;64.30;;;22.67;;
70675;SDS011;59069;52.242;20.900;2023-03-03T04:42:05;66.00;;;23.13;;
70675;SDS011;59069;52.242;20.900;2023-03-03T04:44:30;66.83;;;22.87;;
70675;SDS011;59069;52.242;20.900;2023-03-03T04:46:56;65.30;;;23.08;;
70675;SDS011;59069;52.242;20.900;2023-03-03T04:49:21;67.03;;;23.93;;
70675;SDS011;59069;52.242;20.900;2023-03-03T04:51:47;70.23;;;23.17;;
70675;SDS011;59069;52.242;20.900;2023-03-03T04:54:12;62.05;;;23.23;;
70675;SDS011;59069;52.242;20.900;2023-03-03T04:56:38;65.57;;;24.60;;
70675;SDS011;59069;52.242;20.900;2023-03-03T04:59:04;67.47;;;23.42;;
70675;SDS011;59069;52.242;20.900;2023-03-03T05:01:29;69.83;;;25.27;;
70675;SDS011;59069;52.242;20.900;2023-03-03T05:03:55;75.57;;;25.92;;
70675;SDS011;59069;52.242;20.900;2023-03-03T05:06:20;62.93;;;24.57;;
70675;SDS011;59069;52.242;20.900;2023-03-03T05:08:46;66.35;;;23.70;;
70675;SDS011;59069;52.242;20.900;2023-03-03T05:11:12;67.93;;;23.93;;
70675;SDS011;59069;52.242;20.900;2023-03-03T05:13:38;77.47;;;24.23;;
70675;SDS011;59069;52.242;20.900;2023-03-03T05:16:04;65.80;;;23.50;;
70675;SDS011;59069;52.242;20.900;2023-03-03T05:18:30;72.25;;;24.75;;
70675;SDS011;59069;52.242;20.900;2023-03-03T05:20:55;75.05;;;25.85;;
70675;SDS011;59069;52.242;20.900;2023-03-03T05:23:21;70.60;;;23.53;;
70675;SDS011;59069;52.242;20.900;2023-03-03T05:25:47;74.18;;;24.33;;
70675;SDS011;59069;52.242;20.900;2023-03-03T05:28:13;74.63;;;25.17;;
70675;SDS011;59069;52.242;20.900;2023-03-03T05:30:39;80.30;;;24.90;;
70675;SDS011;59069;52.242;20.900;2023-03-03T05:33:04;72.17;;;25.07;;
70675;SDS011;59069;52.242;20.900;2023-03-03T05:35:30;73.43;;;26.60;;
70675;SDS011;59069;52.242;20.900;2023-03-03T05:37:57;78.68;;;26.25;;
70675;SDS011;59069;52.242;20.900;2023-03-03T05:40:25;82.20;;;25.67;;
70675;SDS011;59069;52.242;20.900;2023-03-03T05:42:51;81.87;;;25.50;;
70675;SDS011;59069;52.242;20.900;2023-03-03T05:45:18;74.68;;;25.77;;
70675;SDS011;59069;52.242;20.900;2023-03-03T05:47:51;82.60;;;25.80;;
70675;SDS011;59069;52.242;20.900;2023-03-03T05:50:18;86.15;;;24.77;;
70675;SDS011;59069;52.242;20.900;2023-03-03T05:52:50;87.33;;;26.47;;
70675;SDS011;59069;52.242;20.900;2023-03-03T05:55:17;85.95;;;26.95;;
70675;SDS011;59069;52.242;20.900;2023-03-03T05:57:43;89.38;;;26.25;;
70675;SDS011;59069;52.242;20.900;2023-03-03T06:00:09;81.43;;;27.05;;
70675;SDS011;59069;52.242;20.900;2023-03-03T06:02:36;82.68;;;27.77;;
70675;SDS011;59069;52.242;20.900;2023-03-03T06:05:01;87.87;;;25.63;;
70675;SDS011;59069;52.242;20.900;2023-03-03T06:07:27;81.43;;;25.27;;
70675;SDS011;59069;52.242;20.900;2023-03-03T06:09:53;87.40;;;25.33;;
70675;SDS011;59069;52.242;20.900;2023-03-03T06:12:18;65.53;;;23.20;;
70675;SDS011;59069;52.242;20.900;2023-03-03T06:14:44;70.28;;;24.10;;
70675;SDS011;59069;52.242;20.900;2023-03-03T06:17:09;76.30;;;22.50;;
70675;SDS011;59069;52.242;20.900;2023-03-03T06:19:35;81.18;;;23.83;;
70675;SDS011;59069;52.242;20.900;2023-03-03T06:22:01;78.05;;;24.30;;
70675;SDS011;59069;52.242;20.900;2023-03-03T06:24:27;73.45;;;23.27;;
70675;SDS011;59069;52.242;20.900;2023-03-03T06:26:58;63.37;;;21.80;;
70675;SDS011;59069;52.242;20.900;2023-03-03T06:29:24;77.25;;;25.75;;
70675;SDS011;59069;52.242;20.900;2023-03-03T06:31:50;64.03;;;21.92;;
70675;SDS011;59069;52.242;20.900;2023-03-03T06:34:16;74.17;;;22.50;;
70675;SDS011;59069;52.242;20.900;2023-03-03T06:36:42;70.20;;;21.83;;
70675;SDS011;59069;52.242;20.900;2023-03-03T06:39:07;60.47;;;17.50;;
70675;SDS011;59069;52.242;20.900;2023-03-03T06:41:33;47.60;;;17.10;;
70675;SDS011;59069;52.242;20.900;2023-03-03T06:43:58;58.27;;;17.97;;
70675;SDS011;59069;52.242;20.900;2023-03-03T06:46:24;56.27;;;17.87;;
70675;SDS011;59069;52.242;20.900;2023-03-03T06:48:50;60.95;;;19.50;;
70675;SDS011;59069;52.242;20.900;2023-03-03T06:51:30;55.25;;;16.85;;
70675;SDS011;59069;52.242;20.900;2023-03-03T06:54:00;47.15;;;15.80;;
70675;SDS011;59069;52.242;20.900;2023-03-03T06:56:30;52.03;;;17.57;;
70675;SDS011;59069;52.242;20.900;2023-03-03T06:59:00;57.58;;;16.52;;
70675;SDS011;59069;52.242;20.900;2023-03-03T07:01:27;54.40;;;16.38;;
70675;SDS011;59069;52.242;20.900;2023-03-03T07:03:59;48.70;;;15.63;;
70675;SDS011;59069;52.242;20.900;2023-03-03T07:06:25;54.20;;;14.68;;
70675;SDS011;59069;52.242;20.900;2023-03-03T07:08:52;55.47;;;17.50;;
70675;SDS011;59069;52.242;20.900;2023-03-03T07:11:20;55.08;;;17.05;;
70675;SDS011;59069;52.242;20.900;2023-03-03T07:13:51;54.05;;;15.93;;
70675;SDS011;59069;52.242;20.900;2023-03-03T07:16:21;52.65;;;15.88;;
70675;SDS011;59069;52.242;20.900;2023-03-03T07:18:50;53.63;;;17.05;;
70675;SDS011;59069;52.242;20.900;2023-03-03T07:21:22;53.30;;;15.83;;
70675;SDS011;59069;52.242;20.900;2023-03-03T07:24:28;52.40;;;15.27;;
70675;SDS011;59069;52.242;20.900;2023-03-03T07:26:55;47.85;;;15.05;;
70675;SDS011;59069;52.242;20.900;2023-03-03T07:29:30;53.00;;;15.88;;
70675;SDS011;59069;52.242;20.900;2023-03-03T07:31:58;60.70;;;17.55;;
70675;SDS011;59069;52.242;20.900;2023-03-03T07:37:00;44.17;;;14.32;;
70675;SDS011;59069;52.242;20.900;2023-03-03T07:39:38;48.60;;;16.02;;
70675;SDS011;59069;52.242;20.900;2023-03-03T07:42:19;41.05;;;13.75;;
70675;SDS011;59069;52.242;20.900;2023-03-03T07:45:25;49.17;;;15.27;;
70675;SDS011;59069;52.242;20.900;2023-03-03T07:47:59;56.33;;;16.93;;
70675;SDS011;59069;52.242;20.900;2023-03-03T07:50:33;56.42;;;15.98;;
70675;SDS011;59069;52.242;20.900;2023-03-03T07:52:59;64.75;;;17.60;;
70675;SDS011;59069;52.242;20.900;2023-03-03T07:55:29;52.87;;;15.13;;
70675;SDS011;59069;52.242;20.900;2023-03-03T08:03:43;55.55;;;15.85;;
70675;SDS011;59069;52.242;20.900;2023-03-03T08:06:27;52.30;;;15.60;;
70675;SDS011;59069;52.242;20.900;2023-03-03T08:14:33;47.90;;;14.57;;
70675;SDS011;59069;52.242;20.900;2023-03-03T08:17:00;47.78;;;13.95;;
70675;SDS011;59069;52.242;20.900;2023-03-03T08:19:26;50.47;;;15.15;;
70675;SDS011;59069;52.242;20.900;2023-03-03T08:21:58;48.65;;;14.57;;
70675;SDS011;59069;52.242;20.900;2023-03-03T08:24:31;54.88;;;14.93;;
70675;SDS011;59069;52.242;20.900;2023-03-03T08:26:56;49.40;;;14.77;;
70675;SDS011;59069;52.242;20.900;2023-03-03T08:29:22;43.08;;;13.05;;
70675;SDS011;59069;52.242;20.900;2023-03-03T08:31:47;45.07;;;13.47;;
70675;SDS011;59069;52.242;20.900;2023-03-03T08:34:13;41.10;;;14.33;;
70675;SDS011;59069;52.242;20.900;2023-03-03T08:36:39;47.55;;;13.93;;
70675;SDS011;59069;52.242;20.900;2023-03-03T08:39:04;46.37;;;14.33;;
70675;SDS011;59069;52.242;20.900;2023-03-03T08:41:30;52.40;;;15.07;;
70675;SDS011;59069;52.242;20.900;2023-03-03T08:43:56;44.70;;;14.03;;
70675;SDS011;59069;52.242;20.900;2023-03-03T08:46:23;48.55;;;14.50;;
70675;SDS011;59069;52.242;20.900;2023-03-03T08:48:48;51.47;;;14.93;;
70675;SDS011;59069;52.242;20.900;2023-03-03T08:51:14;54.72;;;16.08;;
70675;SDS011;59069;52.242;20.900;2023-03-03T08:53:39;54.30;;;16.33;;
70675;SDS011;59069;52.242;20.900;2023-03-03T08:56:05;53.40;;;17.10;;
70675;SDS011;59069;52.242;20.900;2023-03-03T08:58:31;48.87;;;15.47;;
70675;SDS011;59069;52.242;20.900;2023-03-03T09:00:56;62.05;;;17.15;;
70675;SDS011;59069;52.242;20.900;2023-03-03T09:03:23;57.50;;;16.58;;
70675;SDS011;59069;52.242;20.900;2023-03-03T09:05:48;52.77;;;15.87;;
70675;SDS011;59069;52.242;20.900;2023-03-03T09:08:14;55.43;;;16.27;;
70675;SDS011;59069;52.242;20.900;2023-03-03T09:10:40;54.78;;;15.63;;
70675;SDS011;59069;52.242;20.900;2023-03-03T09:13:15;45.67;;;15.13;;
70675;SDS011;59069;52.242;20.900;2023-03-03T09:15:43;46.88;;;14.75;;
70675;SDS011;59069;52.242;20.900;2023-03-03T09:18:12;47.10;;;14.40;;
70675;SDS011;59069;52.242;20.900;2023-03-03T09:20:42;46.25;;;13.93;;
70675;SDS011;59069;52.242;20.900;2023-03-03T09:25:46;40.53;;;11.95;;
70675;SDS011;59069;52.242;20.900;2023-03-03T09:28:28;40.10;;;11.68;;
70675;SDS011;59069;52.242;20.900;2023-03-03T09:30:57;46.50;;;14.68;;
70675;SDS011;59069;52.242;20.900;2023-03-03T09:38:46;42.15;;;12.73;;
70675;SDS011;59069;52.242;20.900;2023-03-03T09:41:22;39.40;;;12.23;;
70675;SDS011;59069;52.242;20.900;2023-03-03T09:44:15;37.85;;;12.27;;
70675;SDS011;59069;52.242;20.900;2023-03-03T10:05:57;47.28;;;13.00;;
70675;SDS011;59069;52.242;20.900;2023-03-03T10:13:58;43.60;;;12.87;;
70675;SDS011;59069;52.242;20.900;2023-03-03T10:16:47;43.53;;;13.07;;
70675;SDS011;59069;52.242;20.900;2023-03-03T10:30:19;36.65;;;11.30;;
70675;SDS011;59069;52.242;20.900;2023-03-03T10:32:57;37.55;;;11.75;;
70675;SDS011;59069;52.242;20.900;2023-03-03T10:45:03;39.90;;;12.35;;
70675;SDS011;59069;52.242;20.900;2023-03-03T10:50:13;31.67;;;11.70;;
70675;SDS011;59069;52.242;20.900;2023-03-03T10:52:47;29.60;;;9.90;;
70675;SDS011;59069;52.242;20.900;2023-03-03T10:58:14;32.20;;;10.23;;
70675;SDS011;59069;52.242;20.900;2023-03-03T11:03:49;31.70;;;9.45;;
70675;SDS011;59069;52.242;20.900;2023-03-03T11:06:21;32.03;;;10.45;;
70675;SDS011;59069;52.242;20.900;2023-03-03T11:23:06;33.00;;;10.15;;
70675;SDS011;59069;52.242;20.900;2023-03-03T11:26:31;34.20;;;11.45;;
70675;SDS011;59069;52.242;20.900;2023-03-03T11:36:47;35.42;;;12.75;;
70675;SDS011;59069;52.242;20.900;2023-03-03T11:39:21;34.63;;;11.70;;
70675;SDS011;59069;52.242;20.900;2023-03-03T11:52:42;31.60;;;11.55;;
70675;SDS011;59069;52.242;20.900;2023-03-03T11:55:22;31.83;;;10.45;;
70675;SDS011;59069;52.242;20.900;2023-03-03T12:00:51;32.93;;;11.40;;
70675;SDS011;59069;52.242;20.900;2023-03-03T12:11:46;27.65;;;9.55;;
70675;SDS011;59069;52.242;20.900;2023-03-03T12:17:16;26.52;;;9.38;;
70675;SDS011;59069;52.242;20.900;2023-03-03T12:19:53;28.65;;;9.57;;
70675;SDS011;59069;52.242;20.900;2023-03-03T12:33:47;29.77;;;10.60;;
70675;SDS011;59069;52.242;20.900;2023-03-03T12:44:44;29.83;;;9.80;;
70675;SDS011;59069;52.242;20.900;2023-03-03T12:47:27;29.50;;;11.95;;
70675;SDS011;59069;52.242;20.900;2023-03-03T12:52:39;30.58;;;10.27;;
70675;SDS011;59069;52.242;20.900;2023-03-03T12:58:13;32.28;;;9.90;;
70675;SDS011;59069;52.242;20.900;2023-03-03T13:00:55;34.17;;;11.05;;
70675;SDS011;59069;52.242;20.900;2023-03-03T13:03:44;39.50;;;12.55;;
70675;SDS011;59069;52.242;20.900;2023-03-03T13:06:29;38.10;;;12.57;;
70675;SDS011;59069;52.242;20.900;2023-03-03T13:09:06;33.13;;;11.73;;
70675;SDS011;59069;52.242;20.900;2023-03-03T13:14:45;30.48;;;10.63;;
70675;SDS011;59069;52.242;20.900;2023-03-03T13:23:06;31.07;;;11.03;;
70675;SDS011;59069;52.242;20.900;2023-03-03T13:25:41;40.17;;;11.80;;
70675;SDS011;59069;52.242;20.900;2023-03-03T13:33:39;33.35;;;10.77;;
70675;SDS011;59069;52.242;20.900;2023-03-03T13:36:13;31.70;;;10.90;;
70675;SDS011;59069;52.242;20.900;2023-03-03T13:38:47;33.80;;;11.30;;
70675;SDS011;59069;52.242;20.900;2023-03-03T13:44:16;33.22;;;10.90;;
70675;SDS011;59069;52.242;20.900;2023-03-03T13:49:32;29.63;;;9.83;;
70675;SDS011;59069;52.242;20.900;2023-03-03T13:52:11;29.85;;;10.43;;
70675;SDS011;59069;52.242;20.900;2023-03-03T14:07:57;28.95;;;10.40;;
70675;SDS011;59069;52.242;20.900;2023-03-03T14:10:30;25.83;;;9.07;;
70675;SDS011;59069;52.242;20.900;2023-03-03T14:13:02;28.60;;;8.57;;
70675;SDS011;59069;52.242;20.900;2023-03-03T14:15:33;33.25;;;10.85;;
70675;SDS011;59069;52.242;20.900;2023-03-03T14:20:52;31.15;;;9.77;;
70675;SDS011;59069;52.242;20.900;2023-03-03T14:28:28;30.50;;;8.98;;
70675;SDS011;59069;52.242;20.900;2023-03-03T14:31:09;29.13;;;9.35;;
70675;SDS011;59069;52.242;20.900;2023-03-03T14:33:56;28.20;;;9.25;;
70675;SDS011;59069;52.242;20.900;2023-03-03T14:36:28;28.87;;;9.07;;
70675;SDS011;59069;52.242;20.900;2023-03-03T14:38:56;31.55;;;9.23;;
70675;SDS011;59069;52.242;20.900;2023-03-03T14:41:22;29.40;;;9.02;;
70675;SDS011;59069;52.242;20.900;2023-03-03T14:44:01;29.33;;;9.23;;
70675;SDS011;59069;52.242;20.900;2023-03-03T14:47:25;33.45;;;10.15;;
70675;SDS011;59069;52.242;20.900;2023-03-03T14:49:46;28.52;;;10.07;;
70675;SDS011;59069;52.242;20.900;2023-03-03T14:54:44;30.70;;;10.00;;
70675;SDS011;59069;52.242;20.900;2023-03-03T14:57:18;30.80;;;10.53;;
70675;SDS011;59069;52.242;20.900;2023-03-03T15:00:07;27.58;;;9.00;;
70675;SDS011;59069;52.242;20.900;2023-03-03T15:05:47;29.33;;;9.73;;
70675;SDS011;59069;52.242;20.900;2023-03-03T15:08:35;22.63;;;8.20;;
70675;SDS011;59069;52.242;20.900;2023-03-03T15:11:13;27.53;;;8.97;;
70675;SDS011;59069;52.242;20.900;2023-03-03T15:13:44;25.90;;;8.23;;
70675;SDS011;59069;52.242;20.900;2023-03-03T15:16:11;20.63;;;7.93;;
70675;SDS011;59069;52.242;20.900;2023-03-03T15:21:30;28.27;;;8.77;;
70675;SDS011;59069;52.242;20.900;2023-03-03T15:26:29;25.13;;;8.13;;
70675;SDS011;59069;52.242;20.900;2023-03-03T15:29:16;26.77;;;9.38;;
70675;SDS011;59069;52.242;20.900;2023-03-03T15:32:23;33.37;;;10.23;;
70675;SDS011;59069;52.242;20.900;2023-03-03T15:35:02;25.83;;;8.75;;
70675;SDS011;59069;52.242;20.900;2023-03-03T15:40:28;22.50;;;8.18;;
70675;SDS011;59069;52.242;20.900;2023-03-03T15:51:02;24.35;;;8.73;;
70675;SDS011;59069;52.242;20.900;2023-03-03T16:13:29;33.07;;;10.70;;
70675;SDS011;59069;52.242;20.900;2023-03-03T16:21:34;30.83;;;10.25;;
70675;SDS011;59069;52.242;20.900;2023-03-03T16:24:21;33.75;;;11.63;;
70675;SDS011;59069;52.242;20.900;2023-03-03T16:26:55;35.90;;;11.37;;
70675;SDS011;59069;52.242;20.900;2023-03-03T16:29:41;31.95;;;10.52;;
70675;SDS011;59069;52.242;20.900;2023-03-03T16:35:16;28.70;;;10.27;;
70675;SDS011;59069;52.242;20.900;2023-03-03T16:40:35;32.80;;;9.80;;
70675;SDS011;59069;52.242;20.900;2023-03-03T16:45:49;32.28;;;10.32;;
70675;SDS011;59069;52.242;20.900;2023-03-03T16:48:24;36.17;;;12.02;;
70675;SDS011;59069;52.242;20.900;2023-03-03T16:54:07;26.70;;;9.30;;
70675;SDS011;59069;52.242;20.900;2023-03-03T16:56:59;34.90;;;11.15;;
70675;SDS011;59069;52.242;20.900;2023-03-03T17:16:11;28.15;;;9.18;;
70675;SDS011;59069;52.242;20.900;2023-03-03T17:45:55;28.92;;;9.02;;
70675;SDS011;59069;52.242;20.900;2023-03-03T17:48:43;29.25;;;10.60;;
70675;SDS011;59069;52.242;20.900;2023-03-03T18:09:22;28.85;;;10.32;;
70675;SDS011;59069;52.242;20.900;2023-03-03T18:22:48;31.70;;;10.65;;
70675;SDS011;59069;52.242;20.900;2023-03-03T18:25:16;31.90;;;9.77;;
70675;SDS011;59069;52.242;20.900;2023-03-03T18:27:45;30.77;;;10.15;;
70675;SDS011;59069;52.242;20.900;2023-03-03T18:30:39;33.20;;;11.45;;
70675;SDS011;59069;52.242;20.900;2023-03-03T18:38:56;29.13;;;9.90;;
70675;SDS011;59069;52.242;20.900;2023-03-03T18:41:29;32.25;;;11.35;;
70675;SDS011;59069;52.242;20.900;2023-03-03T18:44:38;33.30;;;11.50;;
70675;SDS011;59069;52.242;20.900;2023-03-03T18:46:50;31.02;;;10.30;;
70675;SDS011;59069;52.242;20.900;2023-03-03T18:49:17;30.60;;;10.35;;
70675;SDS011;59069;52.242;20.900;2023-03-03T18:52:36;28.53;;;10.60;;
70675;SDS011;59069;52.242;20.900;2023-03-03T18:55:03;30.23;;;9.90;;
70675;SDS011;59069;52.242;20.900;2023-03-03T19:00:50;27.98;;;9.35;;
70675;SDS011;59069;52.242;20.900;2023-03-03T19:03:23;28.92;;;10.57;;
70675;SDS011;59069;52.242;20.900;2023-03-03T19:05:52;31.07;;;10.57;;
70675;SDS011;59069;52.242;20.900;2023-03-03T19:10:55;34.95;;;11.80;;
70675;SDS011;59069;52.242;20.900;2023-03-03T19:13:44;31.83;;;10.82;;
70675;SDS011;59069;52.242;20.900;2023-03-03T19:16:26;38.33;;;12.00;;
70675;SDS011;59069;52.242;20.900;2023-03-03T19:21:33;35.40;;;11.32;;
70675;SDS011;59069;52.242;20.900;2023-03-03T19:24:01;30.27;;;10.75;;
70675;SDS011;59069;52.242;20.900;2023-03-03T19:37:03;29.83;;;10.82;;
70675;SDS011;59069;52.242;20.900;2023-03-03T19:42:26;30.50;;;11.52;;
70675;SDS011;59069;52.242;20.900;2023-03-03T19:45:04;31.73;;;11.15;;
70675;SDS011;59069;52.242;20.900;2023-03-03T19:58:24;33.22;;;11.93;;
70675;SDS011;59069;52.242;20.900;2023-03-03T20:00:56;36.95;;;10.88;;
70675;SDS011;59069;52.242;20.900;2023-03-03T20:03:38;36.58;;;12.13;;
70675;SDS011;59069;52.242;20.900;2023-03-03T20:06:12;33.10;;;12.10;;
70675;SDS011;59069;52.242;20.900;2023-03-03T20:08:52;34.28;;;12.60;;
70675;SDS011;59069;52.242;20.900;2023-03-03T20:11:40;31.98;;;11.27;;
70675;SDS011;59069;52.242;20.900;2023-03-03T20:14:44;32.90;;;10.55;;
70675;SDS011;59069;52.242;20.900;2023-03-03T20:20:33;31.40;;;10.80;;
70675;SDS011;59069;52.242;20.900;2023-03-03T20:29:37;29.08;;;10.82;;
70675;SDS011;59069;52.242;20.900;2023-03-03T20:32:23;30.05;;;11.30;;
70675;SDS011;59069;52.242;20.900;2023-03-03T20:38:22;38.55;;;12.70;;
70675;SDS011;59069;52.242;20.900;2023-03-03T20:43:38;37.80;;;12.23;;
70675;SDS011;59069;52.242;20.900;2023-03-03T20:51:55;30.45;;;11.88;;
70675;SDS011;59069;52.242;20.900;2023-03-03T20:54:33;39.95;;;13.07;;
70675;SDS011;59069;52.242;20.900;2023-03-03T21:04:44;37.28;;;11.85;;
70675;SDS011;59069;52.242;20.900;2023-03-03T21:07:21;37.58;;;13.60;;
70675;SDS011;59069;52.242;20.900;2023-03-03T21:09:49;35.73;;;11.40;;
70675;SDS011;59069;52.242;20.900;2023-03-03T21:12:33;41.53;;;11.63;;
70675;SDS011;59069;52.242;20.900;2023-03-03T21:15:02;32.10;;;11.18;;
70675;SDS011;59069;52.242;20.900;2023-03-03T21:17:31;34.77;;;12.17;;
70675;SDS011;59069;52.242;20.900;2023-03-03T21:20:39;34.45;;;11.00;;
70675;SDS011;59069;52.242;20.900;2023-03-03T21:22:48;36.33;;;11.60;;
70675;SDS011;59069;52.242;20.900;2023-03-03T21:28:12;30.35;;;10.38;;